Time;durP1;ratioP1;P1;durP2;ratioP2;P2;SDS_P1;SDS_P2;PMS_P1;PMS_P2;Temp;Humidity;BMP_temperature;BMP_pressure;BME280_temperature;BME280_humidity;BME280_pressure;Samples;Min_cycle;Max_cycle;Signal;HPM_P1;HPM_P2
2023/09/21 00:01:53;;;;;;;4.25;1.85;;;;;;;;;;5010088;28;98268;-74
2023/09/21 00:04:19;;;;;;;2.45;1.67;;;;;;;;;;5008199;28;98558;-74
2023/09/21 00:06:49;;;;;;;2.25;1.63;;;;;;;;;;5008371;28;99536;-74
2023/09/21 00:09:15;;;;;;;2.63;1.65;;;;;;;;;;5010724;28;98361;-75
2023/09/21 00:11:42;;;;;;;9.00;1.85;;;;;;;;;;5005833;28;99520;-74
2023/09/21 00:14:09;;;;;;;1.80;1.58;;;;;;;;;;5006748;28;98337;-74
2023/09/21 00:16:35;;;;;;;9.73;2.05;;;;;;;;;;5008452;28;98646;-74
2023/09/21 00:19:07;;;;;;;1.85;1.55;;;;;;;;;;5007944;28;99890;-74
2023/09/21 00:21:34;;;;;;;3.70;1.50;;;;;;;;;;5007327;28;99251;-74
2023/09/21 00:24:15;;;;;;;2.70;1.63;;;;;;;;;;5009124;28;99379;-74
2023/09/21 00:26:46;;;;;;;3.42;1.98;;;;;;;;;;5007409;28;99271;-74
2023/09/21 00:29:13;;;;;;;1.48;1.13;;;;;;;;;;5007475;28;98172;-73
2023/09/21 00:31:39;;;;;;;5.95;1.80;;;;;;;;;;5006894;28;100157;-75
2023/09/21 00:34:08;;;;;;;3.92;1.50;;;;;;;;;;5011126;28;98255;-74
2023/09/21 00:36:35;;;;;;;2.60;1.88;;;;;;;;;;5007568;28;101109;-75
2023/09/21 00:39:03;;;;;;;3.35;1.50;;;;;;;;;;5008892;28;98832;-74
2023/09/21 00:41:33;;;;;;;1.77;1.40;;;;;;;;;;5007479;28;98182;-74
2023/09/21 00:44:05;;;;;;;4.20;2.28;;;;;;;;;;5007359;28;98690;-73
2023/09/21 00:46:35;;;;;;;13.68;1.73;;;;;;;;;;5003138;28;100043;-74
2023/09/21 00:49:04;;;;;;;3.05;1.23;;;;;;;;;;4999446;28;99674;-73
2023/09/21 00:51:35;;;;;;;1.50;1.40;;;;;;;;;;5003244;28;98653;-74
2023/09/21 00:54:09;;;;;;;2.35;1.48;;;;;;;;;;5011965;28;101183;-74
2023/09/21 00:56:38;;;;;;;7.60;1.80;;;;;;;;;;5003965;28;98368;-74
2023/09/21 00:59:05;;;;;;;2.08;1.75;;;;;;;;;;4999952;28;100342;-74
2023/09/21 01:01:33;;;;;;;1.90;1.42;;;;;;;;;;5006103;28;98386;-75
2023/09/21 01:04:06;;;;;;;3.78;1.48;;;;;;;;;;5006620;28;99150;-73
2023/09/21 01:06:33;;;;;;;2.03;1.40;;;;;;;;;;5004680;28;100053;-74
2023/09/21 01:09:01;;;;;;;1.70;1.60;;;;;;;;;;5005940;28;98246;-74
2023/09/21 01:11:29;;;;;;;5.88;1.60;;;;;;;;;;5008447;28;99123;-76
2023/09/21 01:13:56;;;;;;;5.03;1.85;;;;;;;;;;5007449;28;99209;-72
2023/09/21 01:16:23;;;;;;;3.38;1.30;;;;;;;;;;5010936;28;99625;-74
2023/09/21 01:18:52;;;;;;;2.92;1.48;;;;;;;;;;5006775;28;100114;-73
2023/09/21 01:21:23;;;;;;;8.02;1.60;;;;;;;;;;5006105;28;98241;-73
2023/09/21 01:23:52;;;;;;;2.90;1.50;;;;;;;;;;5007636;28;98584;-74
2023/09/21 01:26:19;;;;;;;4.72;1.60;;;;;;;;;;5002127;28;100140;-76
2023/09/21 01:28:49;;;;;;;3.20;1.85;;;;;;;;;;5005282;28;98721;-74
2023/09/21 01:31:17;;;;;;;3.13;2.08;;;;;;;;;;5006035;28;98321;-75
2023/09/21 01:33:44;;;;;;;2.38;1.73;;;;;;;;;;5007028;28;99652;-73
2023/09/21 01:36:12;;;;;;;5.68;1.73;;;;;;;;;;5007468;28;99495;-75
2023/09/21 01:38:43;;;;;;;3.00;1.58;;;;;;;;;;5010085;28;99994;-76
2023/09/21 01:41:12;;;;;;;3.00;1.33;;;;;;;;;;5006709;28;98914;-74
2023/09/21 01:43:39;;;;;;;5.40;1.83;;;;;;;;;;5007558;28;99671;-76
2023/09/21 01:46:05;;;;;;;1.58;1.38;;;;;;;;;;5006263;28;101724;-74
2023/09/21 01:48:32;;;;;;;2.53;1.50;;;;;;;;;;5008375;28;98277;-75
2023/09/21 01:50:59;;;;;;;4.97;1.73;;;;;;;;;;5004395;28;98886;-73
2023/09/21 01:53:26;;;;;;;1.92;1.63;;;;;;;;;;5002955;28;98703;-73
2023/09/21 01:55:53;;;;;;;4.38;1.90;;;;;;;;;;5007268;28;98122;-73
2023/09/21 01:58:23;;;;;;;2.75;1.60;;;;;;;;;;5005884;28;101564;-74
2023/09/21 02:00:50;;;;;;;2.42;1.60;;;;;;;;;;5010684;28;100277;-75
2023/09/21 02:03:19;;;;;;;2.63;1.65;;;;;;;;;;5041941;27;101155;-73
2023/09/21 02:05:49;;;;;;;1.60;1.50;;;;;;;;;;5009845;28;98844;-75
2023/09/21 02:08:17;;;;;;;5.13;1.83;;;;;;;;;;5009024;28;98516;-73
2023/09/21 02:10:44;;;;;;;2.92;1.60;;;;;;;;;;5004706;28;100978;-72
2023/09/21 02:13:11;;;;;;;3.60;1.40;;;;;;;;;;5009515;28;100068;-74
2023/09/21 02:15:38;;;;;;;2.72;1.73;;;;;;;;;;5012099;28;98214;-74
2023/09/21 02:18:05;;;;;;;1.50;1.40;;;;;;;;;;5009859;28;101390;-74
2023/09/21 02:20:34;;;;;;;1.67;1.50;;;;;;;;;;5009089;28;99296;-74
2023/09/21 02:23:02;;;;;;;3.00;1.90;;;;;;;;;;5011449;28;98249;-73
2023/09/21 02:25:32;;;;;;;3.63;1.40;;;;;;;;;;5009806;28;98971;-75
2023/09/21 02:27:59;;;;;;;6.18;1.60;;;;;;;;;;5010925;28;98452;-74
2023/09/21 02:30:26;;;;;;;4.22;1.67;;;;;;;;;;5011263;28;98421;-74
2023/09/21 02:32:55;;;;;;;3.75;1.55;;;;;;;;;;5010313;28;98968;-73
2023/09/21 02:35:27;;;;;;;2.97;1.80;;;;;;;;;;5009590;28;98172;-73
2023/09/21 02:37:54;;;;;;;2.78;1.77;;;;;;;;;;5011531;28;98386;-75
2023/09/21 02:40:23;;;;;;;6.40;1.45;;;;;;;;;;5008650;28;101405;-74
2023/09/21 02:42:50;;;;;;;2.53;2.00;;;;;;;;;;5012376;28;98707;-75
2023/09/21 02:45:20;;;;;;;4.85;1.83;;;;;;;;;;5017107;28;98832;-73
2023/09/21 02:47:47;;;;;;;7.18;1.80;;;;;;;;;;5008709;28;99484;-74
2023/09/21 02:50:15;;;;;;;2.58;1.67;;;;;;;;;;5012055;27;101335;-73
2023/09/21 02:52:46;;;;;;;4.68;1.45;;;;;;;;;;5024859;27;103641;-75
2023/09/21 02:55:18;;;;;;;1.83;1.73;;;;;;;;;;5006423;28;98199;-74
2023/09/21 02:57:47;;;;;;;4.57;1.50;;;;;;;;;;5007932;28;101160;-75
2023/09/21 03:00:22;;;;;;;3.80;2.13;;;;;;;;;;5003870;28;100878;-74
2023/09/21 03:02:49;;;;;;;2.08;1.45;;;;;;;;;;5015692;28;98349;-74
2023/09/21 03:05:16;;;;;;;1.90;1.67;;;;;;;;;;5011290;28;100125;-75
2023/09/21 03:07:43;;;;;;;3.17;1.83;;;;;;;;;;5002530;28;99893;-74
2023/09/21 03:10:11;;;;;;;3.10;1.73;;;;;;;;;;5000293;28;98637;-74
2023/09/21 03:12:37;;;;;;;5.68;1.17;;;;;;;;;;5009094;28;99021;-73
2023/09/21 03:15:15;;;;;;;2.28;1.83;;;;;;;;;;5008254;28;98292;-75
2023/09/21 03:17:43;;;;;;;3.90;1.63;;;;;;;;;;5025762;27;99407;-75
2023/09/21 03:20:28;;;;;;;4.07;2.08;;;;;;;;;;5009168;28;98573;-74
2023/09/21 03:22:55;;;;;;;2.75;1.73;;;;;;;;;;5008357;28;98154;-75
2023/09/21 03:25:32;;;;;;;1.50;1.40;;;;;;;;;;5007040;28;101090;-73
2023/09/21 03:28:10;;;;;;;3.67;1.20;;;;;;;;;;5012715;28;98762;-73
2023/09/21 03:30:38;;;;;;;2.60;1.80;;;;;;;;;;5008855;28;98564;-73
2023/09/21 03:33:05;;;;;;;2.58;1.92;;;;;;;;;;5007676;28;99865;-75
2023/09/21 03:35:32;;;;;;;2.00;1.55;;;;;;;;;;5006904;28;98973;-73
2023/09/21 03:37:58;;;;;;;3.15;1.95;;;;;;;;;;5007605;28;101839;-73
2023/09/21 03:40:26;;;;;;;1.70;1.60;;;;;;;;;;5005902;28;101928;-74
2023/09/21 03:42:55;;;;;;;3.95;1.75;;;;;;;;;;5006745;28;98238;-74
2023/09/21 03:45:24;;;;;;;1.85;1.75;;;;;;;;;;5008418;28;99883;-74
2023/09/21 03:47:51;;;;;;;1.70;1.60;;;;;;;;;;5007872;28;100247;-75
2023/09/21 03:50:18;;;;;;;1.58;1.40;;;;;;;;;;5011294;28;98251;-74
2023/09/21 03:52:47;;;;;;;2.47;1.65;;;;;;;;;;5008088;28;98969;-72
2023/09/21 03:55:16;;;;;;;1.98;1.73;;;;;;;;;;5010340;28;98151;-73
2023/09/21 03:57:46;;;;;;;1.52;1.42;;;;;;;;;;5004778;28;100530;-74
2023/09/21 04:02:47;;;;;;;5.00;2.13;;;;;;;;;;5007170;28;99509;-73
2023/09/21 04:05:18;;;;;;;2.47;1.40;;;;;;;;;;5008246;28;100614;-75
2023/09/21 04:07:46;;;;;;;5.47;1.60;;;;;;;;;;5007718;28;101624;-74
2023/09/21 04:10:13;;;;;;;2.97;1.60;;;;;;;;;;5008190;28;98225;-75
2023/09/21 04:12:39;;;;;;;2.05;1.73;;;;;;;;;;5043046;27;100496;-74
2023/09/21 04:15:06;;;;;;;2.08;1.40;;;;;;;;;;5007333;28;98343;-74
2023/09/21 04:17:35;;;;;;;1.80;1.60;;;;;;;;;;5010086;28;98022;-73
2023/09/21 04:20:10;;;;;;;2.60;1.98;;;;;;;;;;5007407;28;100005;-73
2023/09/21 04:22:41;;;;;;;1.75;1.60;;;;;;;;;;5009126;28;98187;-74
2023/09/21 04:25:09;;;;;;;1.80;1.30;;;;;;;;;;5007964;28;100459;-75
2023/09/21 04:27:36;;;;;;;1.50;1.40;;;;;;;;;;5007725;28;99223;-73
2023/09/21 04:30:03;;;;;;;1.77;1.48;;;;;;;;;;5006856;28;98358;-74
2023/09/21 04:32:30;;;;;;;2.83;2.05;;;;;;;;;;5002803;28;101043;-75
2023/09/21 04:34:58;;;;;;;2.55;1.70;;;;;;;;;;5007620;28;101757;-74
2023/09/21 04:37:28;;;;;;;3.90;1.85;;;;;;;;;;5009548;28;98263;-74
2023/09/21 04:39:55;;;;;;;3.05;1.77;;;;;;;;;;5007465;28;99946;-73
2023/09/21 04:42:22;;;;;;;1.95;1.73;;;;;;;;;;5007796;28;98288;-74
2023/09/21 04:44:49;;;;;;;1.80;1.42;;;;;;;;;;5009200;28;98365;-74
2023/09/21 04:47:15;;;;;;;2.78;1.73;;;;;;;;;;5008122;28;99304;-74
2023/09/21 04:49:42;;;;;;;3.60;1.77;;;;;;;;;;5008166;28;98415;-74
2023/09/21 04:52:08;;;;;;;1.92;1.48;;;;;;;;;;5005107;28;101237;-73
2023/09/21 04:54:35;;;;;;;1.70;1.60;;;;;;;;;;5011903;28;98676;-75
2023/09/21 04:57:02;;;;;;;5.85;1.50;;;;;;;;;;5009261;28;99509;-74
2023/09/21 04:59:29;;;;;;;3.40;2.15;;;;;;;;;;5007580;28;102867;-74
2023/09/21 05:01:55;;;;;;;5.43;2.03;;;;;;;;;;5006977;28;98481;-74
2023/09/21 05:04:22;;;;;;;2.10;1.58;;;;;;;;;;5009028;28;101088;-73
2023/09/21 05:06:49;;;;;;;1.83;1.73;;;;;;;;;;5006748;28;99946;-74
2023/09/21 05:09:15;;;;;;;4.15;1.80;;;;;;;;;;5005984;28;99058;-73
2023/09/21 05:11:43;;;;;;;1.70;1.23;;;;;;;;;;5006990;28;100620;-75
2023/09/21 05:14:10;;;;;;;3.13;1.67;;;;;;;;;;4999889;28;102027;-73
2023/09/21 05:16:37;;;;;;;2.80;1.90;;;;;;;;;;5008924;28;98169;-73
2023/09/21 05:19:05;;;;;;;2.83;1.83;;;;;;;;;;5008539;28;99200;-74
2023/09/21 05:21:31;;;;;;;2.55;1.77;;;;;;;;;;5008862;28;99449;-73
2023/09/21 05:23:57;;;;;;;2.92;1.70;;;;;;;;;;5007468;28;101213;-73
2023/09/21 05:26:24;;;;;;;1.85;1.75;;;;;;;;;;5005670;28;100167;-75
2023/09/21 05:28:50;;;;;;;1.92;1.83;;;;;;;;;;5007328;28;98532;-74
2023/09/21 05:31:17;;;;;;;2.97;2.00;;;;;;;;;;5007554;28;99109;-74
2023/09/21 05:33:43;;;;;;;4.47;1.83;;;;;;;;;;5004670;28;99866;-75
2023/09/21 05:36:10;;;;;;;3.22;1.83;;;;;;;;;;5006469;28;98898;-74
2023/09/21 05:38:37;;;;;;;2.20;2.03;;;;;;;;;;5010209;28;100614;-75
2023/09/21 05:41:04;;;;;;;6.22;1.92;;;;;;;;;;5007292;28;98349;-74
2023/09/21 05:43:30;;;;;;;2.20;2.03;;;;;;;;;;5004861;28;99792;-73
2023/09/21 05:45:57;;;;;;;6.35;1.85;;;;;;;;;;5007372;28;99997;-75
2023/09/21 05:48:24;;;;;;;2.17;1.90;;;;;;;;;;5007671;28;99699;-75
2023/09/21 05:50:51;;;;;;;3.72;2.15;;;;;;;;;;5007410;28;99445;-74
2023/09/21 05:53:19;;;;;;;2.55;1.73;;;;;;;;;;5007682;28;100205;-74
2023/09/21 05:55:46;;;;;;;2.50;2.00;;;;;;;;;;5007787;28;98191;-73
2023/09/21 05:58:12;;;;;;;2.35;2.15;;;;;;;;;;5006359;28;99296;-75
2023/09/21 06:00:39;;;;;;;2.20;2.00;;;;;;;;;;5009964;28;99912;-76
2023/09/21 06:03:06;;;;;;;4.53;2.15;;;;;;;;;;5005199;28;98603;-75
2023/09/21 06:05:33;;;;;;;2.55;1.92;;;;;;;;;;5002999;28;99157;-74
2023/09/21 06:08:00;;;;;;;2.60;2.00;;;;;;;;;;5008634;28;98339;-75
2023/09/21 06:10:30;;;;;;;5.93;2.60;;;;;;;;;;5008174;28;98297;-74
2023/09/21 06:12:56;;;;;;;5.10;2.10;;;;;;;;;;5007118;28;99091;-75
2023/09/21 06:15:23;;;;;;;2.55;2.15;;;;;;;;;;5006952;28;98236;-74
2023/09/21 06:17:49;;;;;;;4.43;1.92;;;;;;;;;;5006850;28;100031;-76
2023/09/21 06:20:17;;;;;;;5.38;2.20;;;;;;;;;;5007328;28;100120;-74
2023/09/21 06:22:43;;;;;;;3.80;2.65;;;;;;;;;;5010085;28;98269;-74
2023/09/21 06:25:11;;;;;;;1.83;1.73;;;;;;;;;;5007183;28;100193;-76
2023/09/21 06:27:38;;;;;;;4.93;1.83;;;;;;;;;;5006874;28;98192;-75
2023/09/21 06:30:05;;;;;;;2.88;1.98;;;;;;;;;;5007742;28;98687;-75
2023/09/21 06:32:32;;;;;;;5.88;2.20;;;;;;;;;;5005468;28;99822;-74
2023/09/21 06:34:59;;;;;;;4.40;2.20;;;;;;;;;;5010043;28;98207;-76
2023/09/21 06:37:30;;;;;;;2.80;2.08;;;;;;;;;;5011620;28;99724;-75
2023/09/21 06:39:57;;;;;;;6.28;2.25;;;;;;;;;;5009946;28;100172;-74
2023/09/21 06:42:23;;;;;;;5.10;1.83;;;;;;;;;;5005435;28;98990;-74
2023/09/21 06:44:54;;;;;;;3.78;2.47;;;;;;;;;;5009516;28;101350;-74
2023/09/21 06:47:22;;;;;;;5.53;2.47;;;;;;;;;;5004865;28;98898;-74
2023/09/21 06:49:50;;;;;;;2.45;2.25;;;;;;;;;;5003406;28;100075;-75
2023/09/21 06:52:17;;;;;;;4.28;2.20;;;;;;;;;;4998051;28;99187;-75
2023/09/21 06:54:44;;;;;;;3.50;2.40;;;;;;;;;;5013128;28;98890;-75
2023/09/21 06:57:11;;;;;;;2.85;2.00;;;;;;;;;;5021885;28;98737;-74
2023/09/21 06:59:41;;;;;;;4.72;2.30;;;;;;;;;;5015061;28;99977;-73
2023/09/21 07:02:08;;;;;;;3.88;2.30;;;;;;;;;;5022982;28;98034;-74
2023/09/21 07:04:34;;;;;;;2.78;1.58;;;;;;;;;;5012181;28;99706;-74
2023/09/21 07:07:05;;;;;;;1.48;1.10;;;;;;;;;;5002696;28;98262;-75
2023/09/21 07:09:32;;;;;;;0.70;0.70;;;;;;;;;;4994822;28;99949;-74
2023/09/21 07:11:59;;;;;;;1.00;0.80;;;;;;;;;;4999307;28;100759;-74
2023/09/21 07:14:26;;;;;;;0.80;0.80;;;;;;;;;;4996126;28;99412;-74
2023/09/21 07:16:54;;;;;;;1.38;1.27;;;;;;;;;;4999324;28;98800;-76
2023/09/21 07:19:22;;;;;;;1.75;0.90;;;;;;;;;;5000151;28;100137;-76
2023/09/21 07:21:48;;;;;;;1.48;1.10;;;;;;;;;;5000884;28;98410;-76
2023/09/21 07:24:15;;;;;;;5.50;1.23;;;;;;;;;;4997861;28;99650;-76
2023/09/21 07:26:45;;;;;;;2.47;0.88;;;;;;;;;;5002215;28;100021;-75
2023/09/21 07:29:12;;;;;;;1.33;1.02;;;;;;;;;;5000871;28;101699;-75
2023/09/21 07:31:40;;;;;;;0.98;0.93;;;;;;;;;;4999501;28;99878;-75
2023/09/21 07:34:06;;;;;;;1.02;0.90;;;;;;;;;;5008842;28;98473;-75
2023/09/21 07:36:35;;;;;;;0.85;0.82;;;;;;;;;;5007675;28;100491;-74
2023/09/21 07:39:03;;;;;;;1.00;1.00;;;;;;;;;;5005305;28;100006;-75
2023/09/21 07:41:30;;;;;;;1.38;0.82;;;;;;;;;;5000085;28;99432;-75
2023/09/21 07:43:56;;;;;;;2.17;0.93;;;;;;;;;;4998534;28;100560;-74
2023/09/21 07:46:23;;;;;;;8.45;1.10;;;;;;;;;;4998301;28;99075;-74
2023/09/21 07:48:50;;;;;;;1.38;0.85;;;;;;;;;;5004905;28;98558;-74
2023/09/21 07:51:17;;;;;;;0.98;0.98;;;;;;;;;;4999867;28;100154;-76
2023/09/21 07:53:43;;;;;;;0.73;0.73;;;;;;;;;;4998925;28;99452;-75
2023/09/21 07:56:13;;;;;;;3.25;1.45;;;;;;;;;;4997732;28;101222;-75
2023/09/21 07:58:40;;;;;;;1.67;0.98;;;;;;;;;;4999782;28;99056;-75
2023/09/21 08:01:06;;;;;;;1.65;1.20;;;;;;;;;;4999989;28;98322;-75
2023/09/21 08:03:33;;;;;;;3.60;1.42;;;;;;;;;;4999007;28;98999;-73
2023/09/21 08:05:59;;;;;;;0.70;0.70;;;;;;;;;;5001416;28;100078;-75
2023/09/21 08:08:26;;;;;;;1.50;1.25;;;;;;;;;;4998149;28;100013;-75
2023/09/21 08:10:53;;;;;;;0.98;0.95;;;;;;;;;;5003859;28;99926;-75
2023/09/21 08:13:20;;;;;;;1.40;1.00;;;;;;;;;;5000249;28;99148;-76
2023/09/21 08:15:46;;;;;;;3.55;1.67;;;;;;;;;;5000149;28;100111;-75
2023/09/21 08:18:13;;;;;;;1.00;1.00;;;;;;;;;;4998186;28;99919;-75
2023/09/21 08:20:40;;;;;;;1.38;1.00;;;;;;;;;;5001256;28;99081;-74
2023/09/21 08:23:07;;;;;;;2.08;1.00;;;;;;;;;;5003327;28;99721;-74
2023/09/21 08:25:34;;;;;;;1.33;0.93;;;;;;;;;;4999270;28;99879;-74
2023/09/21 08:28:03;;;;;;;2.55;1.17;;;;;;;;;;5003775;28;99253;-74
2023/09/21 08:30:30;;;;;;;4.72;1.17;;;;;;;;;;5002359;28;99391;-74
2023/09/21 08:32:57;;;;;;;1.67;1.00;;;;;;;;;;5005613;28;99748;-76
2023/09/21 08:35:26;;;;;;;2.80;0.85;;;;;;;;;;5015368;28;98890;-76
2023/09/21 08:37:52;;;;;;;2.33;1.48;;;;;;;;;;5010421;28;98853;-73
2023/09/21 08:40:22;;;;;;;2.45;1.08;;;;;;;;;;5007464;28;98219;-74
2023/09/21 08:42:53;;;;;;;1.77;1.20;;;;;;;;;;5007706;28;99599;-76
2023/09/21 08:45:22;;;;;;;1.17;1.10;;;;;;;;;;5007242;28;99175;-76
2023/09/21 08:47:49;;;;;;;2.95;1.48;;;;;;;;;;4988093;28;98355;-82
2023/09/21 08:50:16;;;;;;;6.00;1.50;;;;;;;;;;5012730;28;98618;-78
2023/09/21 08:52:45;;;;;;;3.95;1.60;;;;;;;;;;5028315;27;99954;-81
2023/09/21 08:55:12;;;;;;;1.90;1.20;;;;;;;;;;5011911;28;98727;-80
2023/09/21 08:57:39;;;;;;;3.22;1.30;;;;;;;;;;5007380;28;99378;-80
2023/09/21 09:00:06;;;;;;;1.77;1.25;;;;;;;;;;5007098;28;98488;-78
2023/09/21 09:02:35;;;;;;;2.47;1.40;;;;;;;;;;5008420;28;99420;-75
2023/09/21 09:05:04;;;;;;;5.68;1.38;;;;;;;;;;5027221;27;98137;-75
2023/09/21 09:07:31;;;;;;;2.17;1.40;;;;;;;;;;5026383;27;99084;-76
2023/09/21 09:09:58;;;;;;;2.28;1.27;;;;;;;;;;5026888;27;98504;-77
2023/09/21 09:12:24;;;;;;;1.40;1.30;;;;;;;;;;5002079;28;98804;-77
2023/09/21 09:14:51;;;;;;;3.25;1.48;;;;;;;;;;4990071;28;99477;-76
2023/09/21 09:17:18;;;;;;;3.10;1.70;;;;;;;;;;4987613;28;99051;-75
2023/09/21 09:19:47;;;;;;;2.47;1.42;;;;;;;;;;5004468;28;98175;-75
2023/09/21 09:22:14;;;;;;;3.20;1.20;;;;;;;;;;5005721;28;99099;-76
2023/09/21 09:24:41;;;;;;;1.17;1.10;;;;;;;;;;5003943;28;99875;-76
2023/09/21 09:27:08;;;;;;;5.50;2.53;;;;;;;;;;5005455;28;98323;-76
2023/09/21 09:29:48;;;;;;;2.33;1.20;;;;;;;;;;5005522;28;98647;-77
2023/09/21 09:32:23;;;;;;;3.63;1.50;;;;;;;;;;5009039;28;100005;-76
2023/09/21 09:34:50;;;;;;;1.75;1.40;;;;;;;;;;5003314;28;98294;-77
2023/09/21 09:37:16;;;;;;;1.50;1.40;;;;;;;;;;5005183;28;99775;-75
2023/09/21 09:39:44;;;;;;;1.13;1.02;;;;;;;;;;5005077;28;98356;-76
2023/09/21 09:42:13;;;;;;;5.70;1.60;;;;;;;;;;5002139;28;99267;-74
2023/09/21 09:44:48;;;;;;;1.85;1.50;;;;;;;;;;5001751;28;99952;-78
2023/09/21 09:47:16;;;;;;;3.28;1.30;;;;;;;;;;5001964;28;98378;-77
2023/09/21 09:49:44;;;;;;;4.20;1.88;;;;;;;;;;5001377;28;100040;-78
2023/09/21 09:52:13;;;;;;;1.50;1.38;;;;;;;;;;5004045;28;100249;-77
2023/09/21 09:54:40;;;;;;;1.55;1.30;;;;;;;;;;5004506;28;99157;-77
2023/09/21 09:57:11;;;;;;;1.92;1.25;;;;;;;;;;5002823;28;99510;-76
2023/09/21 09:59:38;;;;;;;5.07;1.73;;;;;;;;;;5000617;28;100012;-75
2023/09/21 10:02:06;;;;;;;1.60;1.45;;;;;;;;;;5004614;28;99671;-76
2023/09/21 10:04:35;;;;;;;2.00;1.40;;;;;;;;;;5003685;28;98869;-77
2023/09/21 10:07:04;;;;;;;3.28;1.20;;;;;;;;;;5006302;28;98975;-77
2023/09/21 10:09:31;;;;;;;1.83;1.40;;;;;;;;;;5003444;28;99605;-78
2023/09/21 10:11:58;;;;;;;1.63;1.40;;;;;;;;;;5003817;28;100058;-76
2023/09/21 10:14:25;;;;;;;1.58;1.25;;;;;;;;;;5002863;28;98915;-75
2023/09/21 10:16:53;;;;;;;1.33;1.00;;;;;;;;;;5004648;28;99489;-78
2023/09/21 10:19:25;;;;;;;1.70;1.00;;;;;;;;;;5003743;28;99125;-77
2023/09/21 10:21:59;;;;;;;1.17;1.13;;;;;;;;;;5010794;28;98370;-77
2023/09/21 10:24:29;;;;;;;2.05;1.08;;;;;;;;;;5006294;28;99947;-77
2023/09/21 10:26:58;;;;;;;3.58;1.10;;;;;;;;;;5010854;28;99197;-75
2023/09/21 10:29:32;;;;;;;0.95;0.95;;;;;;;;;;5010853;28;98908;-75
2023/09/21 10:32:04;;;;;;;1.52;1.23;;;;;;;;;;5001181;28;100103;-76
2023/09/21 10:34:31;;;;;;;1.57;1.40;;;;;;;;;;5004817;28;98666;-77
2023/09/21 10:37:10;;;;;;;1.27;1.00;;;;;;;;;;5007648;28;98997;-75
2023/09/21 10:39:39;;;;;;;1.45;1.00;;;;;;;;;;5001815;28;99324;-77
2023/09/21 10:42:06;;;;;;;2.92;1.00;;;;;;;;;;5003787;28;98521;-77
2023/09/21 10:44:51;;;;;;;2.22;1.38;;;;;;;;;;4999533;28;99425;-76
2023/09/21 10:47:44;;;;;;;2.00;1.40;;;;;;;;;;5005050;28;99999;-78
2023/09/21 10:50:11;;;;;;;1.35;1.10;;;;;;;;;;5000380;28;99862;-78
2023/09/21 10:52:51;;;;;;;1.13;1.05;;;;;;;;;;5005848;28;99991;-78
2023/09/21 10:55:20;;;;;;;1.77;1.10;;;;;;;;;;5004003;28;99458;-79
2023/09/21 10:57:47;;;;;;;1.98;0.95;;;;;;;;;;5004070;28;98660;-77
2023/09/21 11:00:20;;;;;;;3.80;1.08;;;;;;;;;;5005297;28;100618;-79
2023/09/21 11:02:49;;;;;;;4.00;1.17;;;;;;;;;;5005194;28;98232;-83
2023/09/21 11:05:17;;;;;;;1.25;1.15;;;;;;;;;;5004444;28;99643;-81
2023/09/21 11:07:45;;;;;;;0.90;0.90;;;;;;;;;;5004774;28;98225;-78
2023/09/21 11:10:12;;;;;;;0.95;0.95;;;;;;;;;;5005222;28;98625;-79
2023/09/21 11:12:42;;;;;;;0.70;0.70;;;;;;;;;;5006858;28;98999;-79
2023/09/21 11:15:10;;;;;;;1.65;1.08;;;;;;;;;;5006047;28;99141;-77
2023/09/21 11:17:36;;;;;;;2.80;1.00;;;;;;;;;;5006663;28;99615;-79
2023/09/21 11:20:03;;;;;;;1.00;0.82;;;;;;;;;;5006555;28;99841;-77
2023/09/21 11:22:29;;;;;;;2.88;1.30;;;;;;;;;;5009845;28;98624;-78
2023/09/21 11:24:56;;;;;;;2.70;0.98;;;;;;;;;;5008468;28;99552;-75
2023/09/21 11:27:26;;;;;;;1.00;0.90;;;;;;;;;;5003261;28;100174;-75
2023/09/21 11:29:53;;;;;;;3.25;1.20;;;;;;;;;;5008784;28;100150;-77
2023/09/21 11:32:21;;;;;;;1.88;1.27;;;;;;;;;;5010970;28;100228;-75
2023/09/21 11:34:56;;;;;;;2.58;1.60;;;;;;;;;;5001375;28;99128;-75
2023/09/21 11:37:22;;;;;;;4.50;1.50;;;;;;;;;;5004293;28;99071;-77
2023/09/21 11:39:51;;;;;;;1.60;1.50;;;;;;;;;;5005265;28;99472;-75
2023/09/21 11:42:19;;;;;;;1.77;1.30;;;;;;;;;;4997097;28;100483;-75
2023/09/21 11:44:50;;;;;;;3.78;1.35;;;;;;;;;;5003860;28;98721;-74
2023/09/21 11:47:16;;;;;;;2.42;1.30;;;;;;;;;;5008142;28;99931;-76
2023/09/21 11:49:43;;;;;;;1.40;1.30;;;;;;;;;;4998952;28;98276;-76
2023/09/21 11:52:11;;;;;;;1.88;1.30;;;;;;;;;;5002424;28;98971;-73
2023/09/21 11:54:41;;;;;;;1.40;1.30;;;;;;;;;;5004724;28;100067;-74
2023/09/21 11:57:11;;;;;;;2.60;1.20;;;;;;;;;;5002255;28;99460;-72
2023/09/21 11:59:42;;;;;;;6.37;1.23;;;;;;;;;;5004829;28;99229;-74
2023/09/21 12:02:10;;;;;;;2.03;1.10;;;;;;;;;;5002039;28;98370;-74
2023/09/21 12:04:37;;;;;;;2.60;0.93;;;;;;;;;;5004149;28;99649;-73
2023/09/21 12:07:05;;;;;;;2.05;0.80;;;;;;;;;;5004854;28;100220;-73
2023/09/21 12:09:36;;;;;;;1.10;1.00;;;;;;;;;;5003952;28;98408;-74
2023/09/21 12:12:04;;;;;;;1.73;1.17;;;;;;;;;;5006908;28;99668;-74
2023/09/21 12:14:31;;;;;;;1.90;1.23;;;;;;;;;;5003620;28;98881;-74
2023/09/21 12:17:01;;;;;;;1.42;1.15;;;;;;;;;;5002880;28;99698;-74
2023/09/21 12:19:30;;;;;;;2.08;1.70;;;;;;;;;;5004755;28;100277;-73
2023/09/21 12:21:59;;;;;;;1.88;1.60;;;;;;;;;;5004671;28;98699;-75
2023/09/21 12:24:27;;;;;;;2.92;1.88;;;;;;;;;;5006296;28;99502;-75
2023/09/21 12:26:53;;;;;;;4.82;1.70;;;;;;;;;;5008153;28;100542;-74
2023/09/21 12:29:20;;;;;;;2.10;1.88;;;;;;;;;;5005122;28;98668;-74
2023/09/21 12:31:46;;;;;;;3.67;2.30;;;;;;;;;;5001537;28;99362;-74
2023/09/21 12:34:26;;;;;;;2.78;1.83;;;;;;;;;;5007544;28;99817;-74
2023/09/21 12:36:53;;;;;;;4.57;1.70;;;;;;;;;;5002014;28;98619;-73
2023/09/21 12:39:22;;;;;;;5.68;1.90;;;;;;;;;;5000720;28;100354;-75
2023/09/21 12:41:48;;;;;;;1.70;1.60;;;;;;;;;;5005705;28;98218;-73
2023/09/21 12:44:15;;;;;;;1.80;1.70;;;;;;;;;;5004606;28;98696;-73
2023/09/21 12:46:41;;;;;;;4.15;1.98;;;;;;;;;;5005848;28;99889;-72
2023/09/21 12:49:08;;;;;;;4.95;2.03;;;;;;;;;;5004286;28;99706;-74
2023/09/21 12:51:35;;;;;;;2.05;1.77;;;;;;;;;;5005883;28;99495;-75
2023/09/21 12:54:07;;;;;;;2.13;1.92;;;;;;;;;;5004477;28;99789;-75
2023/09/21 12:56:34;;;;;;;2.00;1.88;;;;;;;;;;5000463;28;98214;-75
2023/09/21 12:59:00;;;;;;;4.78;2.05;;;;;;;;;;4999033;28;100289;-75
2023/09/21 13:01:28;;;;;;;2.30;2.10;;;;;;;;;;4997540;28;99183;-75
2023/09/21 13:03:55;;;;;;;2.00;1.83;;;;;;;;;;4998072;28;99618;-75
2023/09/21 13:06:22;;;;;;;1.70;1.60;;;;;;;;;;4997704;28;100376;-74
2023/09/21 13:08:49;;;;;;;3.28;1.60;;;;;;;;;;5000582;28;98462;-74
2023/09/21 13:11:15;;;;;;;2.83;1.33;;;;;;;;;;4998603;28;100025;-74
2023/09/21 13:13:42;;;;;;;1.60;1.50;;;;;;;;;;5002257;28;99975;-74
2023/09/21 13:16:09;;;;;;;1.73;1.63;;;;;;;;;;5003936;28;100068;-74
2023/09/21 13:18:36;;;;;;;1.70;1.60;;;;;;;;;;4995673;27;99953;-74
2023/09/21 13:21:03;;;;;;;4.13;1.92;;;;;;;;;;4996704;28;98561;-75
2023/09/21 13:23:29;;;;;;;1.88;1.77;;;;;;;;;;5007906;28;99744;-74
2023/09/21 13:25:56;;;;;;;1.88;1.58;;;;;;;;;;5003452;28;99935;-74
2023/09/21 13:28:23;;;;;;;3.53;1.98;;;;;;;;;;4996703;28;99796;-74
2023/09/21 13:30:50;;;;;;;2.10;2.00;;;;;;;;;;5002063;28;99428;-74
2023/09/21 13:33:16;;;;;;;2.63;1.85;;;;;;;;;;4999694;28;100100;-74
2023/09/21 13:35:43;;;;;;;2.30;2.10;;;;;;;;;;4999615;28;98314;-74
2023/09/21 13:38:12;;;;;;;4.70;1.83;;;;;;;;;;4999483;28;99554;-74
2023/09/21 13:40:39;;;;;;;2.33;1.83;;;;;;;;;;4997161;28;99846;-74
2023/09/21 13:43:05;;;;;;;1.63;1.52;;;;;;;;;;4997516;28;99963;-74
2023/09/21 13:45:34;;;;;;;8.98;2.10;;;;;;;;;;4998086;28;99942;-75
2023/09/21 13:48:03;;;;;;;2.63;1.63;;;;;;;;;;4997308;28;98771;-73
2023/09/21 13:50:30;;;;;;;3.72;1.98;;;;;;;;;;4994832;28;99358;-73
2023/09/21 13:52:58;;;;;;;2.00;1.55;;;;;;;;;;5001913;28;100194;-73
2023/09/21 13:55:26;;;;;;;2.65;2.30;;;;;;;;;;4993815;28;98986;-73
2023/09/21 13:57:52;;;;;;;5.75;2.00;;;;;;;;;;4997801;28;98729;-73
2023/09/21 14:00:21;;;;;;;1.75;1.65;;;;;;;;;;5004012;28;99016;-74
2023/09/21 14:02:48;;;;;;;1.63;1.52;;;;;;;;;;5001282;28;102497;-74
2023/09/21 14:05:18;;;;;;;6.40;1.83;;;;;;;;;;4999102;28;100158;-74
2023/09/21 14:07:45;;;;;;;5.15;2.17;;;;;;;;;;4996123;28;100160;-74
2023/09/21 14:10:12;;;;;;;2.28;2.08;;;;;;;;;;4998102;28;98833;-73
2023/09/21 14:12:40;;;;;;;3.33;1.90;;;;;;;;;;4993116;28;99624;-73
2023/09/21 14:15:07;;;;;;;1.98;1.52;;;;;;;;;;4996654;28;98462;-74
2023/09/21 14:17:35;;;;;;;2.25;2.00;;;;;;;;;;4994737;28;99869;-74
2023/09/21 14:20:03;;;;;;;2.80;1.83;;;;;;;;;;4996595;28;99848;-74
2023/09/21 14:22:29;;;;;;;3.10;1.98;;;;;;;;;;5004644;28;98441;-74
2023/09/21 14:24:56;;;;;;;5.22;2.50;;;;;;;;;;5001765;28;99882;-75
2023/09/21 14:27:22;;;;;;;2.08;1.92;;;;;;;;;;5003979;28;98938;-73
2023/09/21 14:29:49;;;;;;;2.88;2.13;;;;;;;;;;4992372;28;100109;-73
2023/09/21 14:32:15;;;;;;;3.00;2.70;;;;;;;;;;4997213;28;99291;-74
2023/09/21 14:34:42;;;;;;;2.10;1.80;;;;;;;;;;4996722;28;99760;-76
2023/09/21 14:37:09;;;;;;;2.45;2.10;;;;;;;;;;5002666;28;98604;-74
2023/09/21 14:39:37;;;;;;;3.53;1.98;;;;;;;;;;5004162;28;100556;-74
2023/09/21 14:42:04;;;;;;;2.50;2.38;;;;;;;;;;4996246;28;100228;-74
2023/09/21 14:44:30;;;;;;;2.90;2.58;;;;;;;;;;4998541;28;100284;-74
2023/09/21 14:46:57;;;;;;;8.07;4.53;;;;;;;;;;4999939;28;98719;-74
2023/09/21 14:49:23;;;;;;;2.35;2.15;;;;;;;;;;4999049;28;99267;-74